Weather observations for the past three days for
Elizabethtown Addington Field Airport
Metric (Imperial)
Date Time (edt) Wind (kph) Vis. (km) Weather Sky Cond. Temperature (ºC) Relative Humidity Wind Chill (°C) Heat Index (°C) Pressure Precipitation (cm)
Air Dwpt 6 hour altimeter (cm) sea level (mb) 1 hr 3 hr 6 hr
Max. Min.
08 00:55 Calm 16.09 Fair CLR 6.6 3.3 80% 76.23 0.0
08 00:35 Calm 16.09 Fair CLR 7 3 76% 76.25 0.0
08 00:15 Calm 16.09 Fair CLR 6.5 3.2 80% 76.23 0.0
07 23:55 Calm 16.09 Fair CLR 6.2 3.8 85% 76.23 0.0
07 23:35 Calm 16.09 Fair CLR 6.5 3.9 84% 76.23 0.0
07 23:15 Calm 16.09 Fair CLR 7.2 3.2 76% 76.23 0.0
07 22:55 Calm 16.09 Fair CLR 10 1.5 56% 76.23 0.0
07 22:35 Calm 16.09 Fair CLR 11 1 50% 76.23 0.0
07 22:15 Calm 16.09 Fair CLR 11.2 1 50% 76.2 0.0
07 21:55 Calm 16.09 Fair CLR 11.5 0.7 48% 76.2 0.0
07 21:35 Calm 16.09 Fair CLR 12 0.6 46% 76.17 0.0
07 21:15 Calm 16.09 Fair CLR 12.2 0.7 46% 76.15 0.0
07 20:55 Calm 16.09 Fair CLR 12.2 1.3 48% 76.12 0.0
07 20:35 Calm 16.09 Fair CLR 14.2 0 38% 76.12 0.0
07 20:15 Calm 16.09 Fair CLR 14.6 0.2 38% 76.1 0.0
07 19:55 Calm 16.09 Fair CLR 15.5 -0.5 17.3 15.2 34% 76.1 0.0
07 19:35 Calm 16.09 Fair CLR 15.7 -0.7 33% 76.1 0.0
07 19:15 Calm 16.09 Fair CLR 16.2 -0.4 32% 76.1 0.0
07 18:55 Calm 16.09 Fair CLR 16.5 0 33% 76.1 0.0
07 18:35 Calm 16.09 Fair CLR 16.3 -1.4 30% 76.12 0.0
07 18:15 Calm 16.09 Fair CLR 16.3 -0.4 32% 76.1 0.0
07 17:55 Calm 16.09 Fair CLR 16.7 -0.2 32% 76.1 0.0
07 17:35 Calm 16.09 Fair CLR 16.7 -1.2 30% 76.1 0.0
07 17:15 Calm 16.09 Fair CLR 17.3 0.2 32% 76.1 0.0
07 16:15 Calm 16.09 Fair CLR 16.8 -0.7 31% 76.1 0.0
07 15:55 N 6 16.09 Fair CLR 16.5 -0.2 32% 76.12 0.0
07 15:35 Calm 16.09 Fair CLR 16.8 -0.1 32% 76.12 0.0
07 15:15 Calm 16.09 Fair CLR 16 -0.5 33% 76.12 0.0
07 14:55 Calm 16.09 Fair CLR 16.1 0.1 34% 76.15 0.0
07 14:15 NW 9 16.09 Fair CLR 15.3 -0.9 33% 76.15 0.0
07 13:55 NW 7 16.09 Fair CLR 15.2 -0.3 15.5 8.1 35% 76.17 0.0
07 13:35 Calm 16.09 Fair CLR 15.2 0.1 36% 76.2 0.0
07 13:15 Calm 16.09 Fair CLR 14.9 -0.2 36% 76.2 0.0
07 12:55 N 6 16.09 Fair CLR 14.6 0.5 38% 76.23 0.0
07 12:35 N 11 16.09 Fair CLR 15.2 1.3 39% 76.25 0.0
07 12:15 N 7 16.09 Fair CLR 14.3 0.1 38% 76.25 0.0
07 11:55 Calm 16.09 Fair CLR 14.2 1.4 42% 76.25 0.0
07 11:35 Calm 16.09 Fair CLR 14 0.3 39% 76.25 0.0
07 11:15 Calm 16.09 Fair CLR 13.6 0.5 41% 76.25 0.0
07 10:55 Calm 16.09 Fair CLR 13.1 0.2 41% 76.23 0.0
07 10:35 Calm 16.09 Fair CLR 13 1.5 46% 76.23 0.0
07 10:15 Calm 16.09 Fair CLR 12.6 1.6 47% 76.23 0.0
07 09:55 Calm 16.09 Fair CLR 11.7 0.2 45% 76.23 0.0
07 09:35 NE 13 16.09 Fair CLR 11.5 0.7 48% 76.23 0.0
07 09:15 NE 13 16.09 Fair CLR 10.7 1.3 53% 76.23 0.0
07 08:55 Calm 16.09 Fair CLR 10.1 1.8 57% 76.23 0.0
07 08:35 Calm 16.09 Fair CLR 9.5 2.1 60% 76.23 0.0
07 08:15 NE 7 16.09 Fair CLR 8.8 2.9 67% 8 76.23 0.0
07 07:55 Calm 16.09 Fair CLR 8.1 3.1 9.7 6.6 71% 76.23 0.0
07 07:35 Calm 16.09 Fair CLR 7.5 3.6 77% 76.23 0.0
07 07:15 Calm 16.09 Fair CLR 7 3.6 79% 76.2 0.0
07 06:55 Calm 16.09 Fair CLR 6.8 3.5 80% 76.2 0.0
07 06:35 Calm 16.09 Fair CLR 7 3.6 79% 76.17 0.0
07 06:15 Calm 16.09 Fair CLR 7.1 3.5 78% 76.17 0.0
07 05:55 Calm 16.09 Fair CLR 7.1 3.7 79% 76.15 0.0
07 05:35 Calm 16.09 Fair CLR 6.9 4 82% 76.15 0.0
07 05:15 Calm 16.09 Fair CLR 7.3 4.2 81% 76.15 0.0
07 04:55 Calm 16.09 Fair CLR 7.6 4.5 81% 76.15 0.0
07 04:35 Calm 16.09 Fair CLR 7.7 4.7 82% 76.12 0.0
07 04:15 Calm 16.09 Fair CLR 8.1 4.7 79% 76.12 0.0
07 03:55 Calm 16.09 Fair CLR 8.7 4.6 76% 76.12 0.0
07 03:35 Calm 16.09 Fair CLR 9 4.5 74% 76.12 0.0
07 03:15 Calm 16.09 Fair CLR 8.8 4.7 76% 76.1 0.0
07 02:55 Calm 16.09 Fair CLR 9 5 76% 76.12 0.0
07 02:35 Calm 16.09 Fair CLR 9.2 5.3 77% 76.12 0.0
07 02:15 Calm 16.09 Fair CLR 9.7 5.3 74% 76.12 0.0
07 01:55 Calm 16.09 Fair CLR 9.7 5.7 13.5 9.7 76% 76.12 0.0
07 01:35 Calm 16.09 Fair CLR 10.1 6 76% 76.15 0.0
07 01:15 Calm 16.09 Fair CLR 10.5 6 74% 76.12 0.0
07 00:55 Calm 16.09 Fair CLR 10.8 6 72% 76.12 0.0
07 00:35 Calm 16.09 Fair CLR 10.3 6.7 79% 76.1 0.0
07 00:15 Calm 16.09 Fair CLR 10 7.2 83% 76.12 0.0
06 23:55 Calm 16.09 Fair CLR 10.6 6.7 77% 76.15 0.0
06 23:35 Calm 16.09 Fair CLR 10.8 6.6 76% 76.15 0.0
06 23:15 Calm 16.09 Fair CLR 11.1 6.7 75% 76.17 0.0
06 22:55 Calm 16.09 Fair CLR 11.2 6.5 73% 76.17 0.0
06 22:35 Calm 16.09 Fair CLR 11.5 6.2 70% 76.15 0.0
06 22:15 Calm 16.09 Fair CLR 11.9 5.8 67% 76.12 0.0
06 21:55 Calm 16.09 Fair CLR 12 5.6 65% 76.1 0.0
06 21:35 Calm 16.09 Fair CLR 12.2 5.7 65% 76.07 0.0
06 21:15 Calm 16.09 Fair CLR 12.2 5.6 64% 76.05 0.0
06 20:55 Calm 16.09 Fair CLR 12.6 5.3 61% 76.07 0.0
06 20:35 Calm 16.09 Fair CLR 12.8 6 64% 76.05 0.0
06 20:15 Calm 16.09 Partly Cloudy SCT055 13.3 5.6 60% 76.07 0.0
06 19:55 Calm 16.09 Mostly Cloudy BKN055 13.6 4.8 17 13.6 56% 76.07 0.0
06 19:35 Calm 16.09 Overcast OVC055 13.7 4.7 55% 76.02 0.0
06 19:15 Calm 16.09 Overcast OVC055 14 4.6 53% 76.05 0.0
06 18:55 Calm 16.09 Overcast OVC049 14.1 4.8 54% 76.05 0.0
06 18:35 Calm 16.09 Overcast OVC049 14.4 4.6 52% 76.07 0.0
06 18:15 Calm 16.09 Mostly Cloudy BKN049 14.5 5.1 54% 76 0.0
06 17:55 Calm 16.09 Fair CLR 14.9 5.2 53% 76.02 0.0
06 17:35 Calm 16.09 Partly Cloudy SCT065 15 5.6 54% 75.95 0.0
06 17:15 Calm 16.09 Overcast SCT049 OVC065 15.1 5.5 53% 75.97 0.0
06 16:55 Calm 16.09 Overcast SCT049 OVC065 15.3 5.6 53% 76.05 0.0
06 16:35 Calm 16.09 Overcast BKN049 OVC065 15.5 5.6 52% 76 0.0
06 16:15 Calm 16.09 Overcast OVC047 15.5 5.6 52% 76.02 0.0
06 15:55 Calm 16.09 Overcast OVC047 15.6 5.7 52% 76.02 0.0
06 15:35 Calm 16.09 Overcast BKN047 OVC065 15.2 5.9 54% 76.02 0.0
06 15:15 Calm 16.09 Overcast OVC045 15.7 6.1 53% 76.05 0.0
06 14:55 Calm 16.09 Overcast OVC045 16.8 6.4 51% 76.02 0.0
06 14:35 Calm 16.09 Mostly Cloudy BKN045 16.5 6.7 53% 76 0.0
06 14:15 Calm 16.09 Overcast OVC045 15.8 5.8 52% 75.97 0.0
06 13:55 N 7 16.09 Mostly Cloudy BKN047 15.6 5.9 15.7 7.6 53% 76 0.0
06 13:35 Calm 16.09 Partly Cloudy SCT045 15 6 55% 76.02 0.0
06 13:15 Calm 16.09 Fair CLR 14.6 7.4 62% 76.02 0.0
06 12:55 Calm 16.09 Fair CLR 13.7 7 64% 76 0.0
06 12:35 Calm 16.09 Partly Cloudy SCT025 13.5 7.1 65% 76.02 0.0
06 12:15 Calm 16.09 Partly Cloudy SCT025 13 7 67% 76.05 0.0
06 11:55 Calm 16.09 Partly Cloudy SCT033 12.9 6.6 66% 76.05 0.0
06 11:35 Calm 16.09 Overcast OVC031 12.1 6.2 67% 76.02 0.0
06 11:15 N 7 16.09 Overcast OVC031 12 6.6 70% 76 0.0
06 10:55 NE 13 16.09 Mostly Cloudy BKN031 11.8 6.2 69% 75.97 0.0
06 10:35 NE 6 16.09 Mostly Cloudy BKN031 11.2 5.9 70% 75.97 0.0
06 10:15 Calm 16.09 Mostly Cloudy BKN031 10 5.7 75% 75.97 0.0
06 09:55 Calm 16.09 Fair CLR 9.1 5.7 79% 75.97 0.0
06 09:35 Calm 16.09 Fair CLR 8.5 6.2 86% 75.95 0.0
06 09:15 Calm 16.09 Partly Cloudy SCT012 8 5.9 87% 75.95 0.0
06 08:55 NE 13 16.09 Overcast OVC012 7.7 6 89% 6 75.92 0.0
06 08:35 N 13 16.09 Overcast BKN012 OVC100 7.6 6.1 90% 6 75.9 0.0
06 08:15 Calm 16.09 Overcast SCT012 SCT026 OVC100 7.6 6.3 92% 75.9 0.0
06 07:55 Calm 16.09 Overcast SCT014 SCT026 OVC100 7.6 6.9 14.5 7.5 95% 75.87 0.0 0.97
06 07:35 Calm 16.09 Overcast OVC026 7.5 7.5 100% 75.84 0.0
06 07:15 N 9 16.09 Overcast SCT009 OVC024 7.5 7.5 100% 6 75.82 0.0
06 06:55 Calm 16.09 Overcast BKN009 BKN015 OVC024 8.1 8.1 100% 75.79 0.0
06 06:35 Calm 16.09 Overcast OVC007 8.6 8.6 100% 75.74 0.0
06 06:15 Calm 16.09 Overcast OVC009 8.5 8.5 100% 75.72 0.0
06 05:55 Calm 16.09 Mostly Cloudy SCT009 BKN015 BKN085 8.3 8.3 100% 75.72 0.0 0.03
06 05:35 NE 15 G 30 16.09 Light Drizzle SCT009 OVC015 8.5 8.5 100% 6 75.69 0.0
06 05:15 N 13 16.09 Overcast OVC009 9.2 9.2 100% 7 75.69 0.0
06 04:55 Calm 16.09 Light Rain OVC007 9.5 9.5 100% 75.67 0.0 0.38 0.94
06 04:35 Calm 8.05 Rain OVC007 9.6 9.6 100% 75.62 0.0 0.25
06 04:15 Calm 11.27 Rain OVC005 9.8 9.8 100% 75.67 0.0 0.05
06 03:55 Calm 6.44 Rain OVC005 10 10 100% 75.59 0.0 0.41
06 03:35 N 11 16.09 Light Rain BKN005 BKN011 OVC028 10.3 10.3 100% 75.54 0.0 0.13
06 03:15 N 13 6.44 Rain BKN005 BKN012 OVC016 10.5 10.5 100% 75.51 0.0 0.1
06 02:55 N 17 G 28 11.27 Drizzle BKN005 OVC010 11.4 11.4 100% 75.51 0.0 0.13
06 02:35 Calm 6.44 Rain BKN005 BKN009 OVC015 14.5 14.5 100% 75.49 0.0 0.1
06 01:55 Calm 11.27 Light Rain SCT012 BKN023 OVC029 14.5 14.3 17.8 14.5 99% 75.46 0.0 0.3 0.74
06 01:35 Calm 6.44 Rain BKN012 BKN017 OVC029 14.5 14.2 98% 75.49 0.0 0.25
06 01:15 Calm 11.27 Rain SCT021 OVC029 14.5 14.2 98% 75.46 0.0 0.1
06 00:55 Calm 11.27 Rain OVC029 14.5 14.1 97% 75.44 0.0 0.28
06 00:35 Calm 6.44 Heavy Rain SCT023 OVC031 14.5 14 97% 75.46 0.0 0.2
06 00:15 Calm 16.09 Rain OVC029 14.5 13.8 96% 75.46 0.0
05 23:55 Calm 16.09 Light Drizzle OVC029 14.5 13.7 95% 75.49 0.0 0.03
05 23:35 Calm 16.09 Overcast OVC031 14.5 13.7 95% 75.51 0.0
05 23:15 Calm 16.09 Light Rain OVC031 14.5 13.7 95% 75.54 0.0
05 22:55 Calm 16.09 Overcast OVC029 14.5 13.7 95% 75.54 0.0 0.08 0.13
05 22:35 Calm 11.27 Light Rain OVC029 14.5 13.5 94% 75.57 0.0 0.08
05 22:15 SW 13 11.27 Light Rain OVC033 14.8 13.6 93% 75.59 0.0 0.03
05 21:55 S 11 16.09 Overcast OVC033 15 13.7 92% 75.59 0.0 0.03
05 21:35 SW 6 16.09 Overcast SCT030 OVC035 15 13.5 91% 75.59 0.0 0.03
05 21:15 SW 39 G 52 11.27 Light Rain and Breezy SCT037 OVC048 16.9 12.9 77% 75.62 0.0
05 20:55 SW 19 G 33 16.09 Overcast OVC050 17.2 13 76% 75.57 0.0 0.03
05 20:35 Calm 16.09 Overcast OVC060 16.8 14.1 84% 75.51 0.0 0.03
05 20:15 Calm 11.27 Drizzle OVC060 17.3 13.6 79% 75.51 0.0 0.03
05 19:55 Calm 16.09 Light Rain OVC060 17.8 13.3 22.7 17.5 75% 75.51 0.0 0.03 0.03
05 19:35 Calm 16.09 Overcast BKN060 OVC070 17.8 14.2 80% 75.51 0.0 0.03
05 19:15 Calm 11.27 Light Rain SCT032 SCT047 OVC075 17.7 13.6 77% 75.51 0.0 0.03
05 18:55 Calm 16.09 Light Rain SCT033 BKN075 OVC100 18.2 13.7 75% 75.54 0.0
05 18:35 Calm 16.09 Light Drizzle SCT028 BKN090 OVC110 18.4 13.3 72% 75.54 0.0
05 18:15 SW 19 16.09 Light Rain SCT044 BKN070 OVC100 19.2 12.1 64% 75.57 0.0
05 17:55 SW 31 G 43 16.09 Overcast SCT060 OVC070 20.9 10.3 51% 75.57 0.0
05 17:35 SW 35 G 46 16.09 Mostly Cloudy and Breezy SCT060 BKN070 BKN095 22 10.3 48% 75.57 0.0
05 17:15 SW 33 G 44 16.09 Partly Cloudy and Breezy SCT050 SCT090 SCT110 22.6 10.5 46% 75.57 0.0
05 16:55 SW 31 G 46 16.09 Overcast SCT050 BKN080 OVC110 21.7 10.6 49% 75.57 0.0
05 16:35 SW 30 G 37 16.09 Overcast SCT060 BKN070 OVC080 20.5 11.2 55% 75.59 0.0
05 16:15 SW 20 G 30 16.09 Overcast SCT060 OVC080 19.7 11.4 59% 75.64 0.0
05 15:55 SW 17 16.09 Overcast SCT047 SCT055 OVC080 19.9 12 61% 75.64 0.0
05 15:35 SW 20 G 31 16.09 Overcast BKN045 BKN070 OVC080 19.8 12 61% 75.67 0.0
05 15:15 SW 22 G 33 16.09 Overcast BKN045 BKN070 OVC095 19.7 12.1 62% 75.69 0.0
05 14:55 SW 17 G 26 16.09 Overcast SCT055 SCT070 OVC095 19.5 12.6 65% 75.72 0.0
05 14:35 SW 20 G 30 16.09 Overcast SCT040 BKN050 OVC095 19.5 12.4 64% 75.72 0.0
05 14:15 SW 30 G 39 16.09 Overcast SCT038 SCT045 OVC050 19.7 11.8 60% 75.74 0.0
05 13:55 SW 31 G 41 16.09 Overcast BKN038 OVC050 19.9 12.2 21.3 15.2 61% 75.74 0.0
05 13:35 SW 26 G 43 16.09 Mostly Cloudy BKN050 BKN055 21 12.9 60% 75.74 0.0
05 13:15 SW 24 G 33 16.09 Partly Cloudy SCT055 20.3 12.7 62% 75.74 0.0
05 12:55 SW 31 G 37 16.09 Partly Cloudy SCT055 20.4 12.6 61% 75.77 0.0
05 12:35 SW 22 16.09 Mostly Cloudy BKN065 19.9 12.6 63% 75.79 0.0
05 12:15 SW 24 G 31 16.09 Overcast BKN065 OVC080 19 11.9 64% 75.82 0.0
05 11:55 SW 28 G 39 16.09 Mostly Cloudy BKN065 BKN080 19.1 11.9 63% 75.82 0.0
05 11:35 SW 31 G 39 16.09 Mostly Cloudy BKN065 BKN080 19 11.8 63% 75.82 0.0
05 11:15 SW 22 G 33 16.09 Overcast OVC065 18.8 11.5 63% 75.84 0.0
05 10:55 SW 19 G 31 16.09 Partly Cloudy SCT065 18.6 11.5 64% 75.82 0.0
05 10:35 SW 15 G 22 16.09 Fair CLR 18.3 11.3 64% 75.79 0.0
05 10:15 SW 22 G 30 16.09 Fair CLR 18 11 64% 75.79 0.0
05 09:55 SW 17 16.09 Fair CLR 17.7 10.7 64% 75.79 0.0
05 09:35 SW 20 16.09 Fair CLR 17.3 10.3 64% 75.77 0.0
05 09:15 SW 11 16.09 Fair CLR 17 10.3 65% 75.79 0.0
05 08:55 SW 17 16.09 Partly Cloudy SCT090 16.5 10.2 67% 75.79 0.0
05 08:35 S 6 16.09 Partly Cloudy SCT090 16.1 10.1 68% 75.79 0.0
05 08:15 Calm 16.09 Mostly Cloudy BKN090 15.7 9.9 69% 75.79 0.0
05 07:55 S 9 16.09 Overcast OVC090 15.2 9.6 16.6 12.7 69% 75.79 0.0
05 07:35 SW 6 16.09 Overcast OVC090 14.8 9.7 72% 75.79 0.0
05 07:15 Calm 16.09 Mostly Cloudy BKN090 14.5 9.4 72% 75.77 0.0
05 06:55 Calm 16.09 Partly Cloudy SCT090 13.7 9.3 75% 75.77 0.0
05 06:35 Calm 16.09 Fair CLR 13.7 9.5 76% 75.77 0.0
05 06:15 Calm 16.09 Fair CLR 13.6 9.4 76% 75.74 0.0
05 05:55 Calm 16.09 Fair CLR 13.1 9.3 78% 75.72 0.0
05 05:35 Calm 16.09 Fair CLR 12.8 8.7 76% 75.72 0.0
05 05:15 Calm 16.09 Fair CLR 13.9 8.6 71% 75.72 0.0
05 04:55 Calm 16.09 Fair CLR 13.1 8.5 74% 75.69 0.0
05 04:35 Calm 16.09 Fair CLR 13.8 8.7 72% 75.72 0.0
05 04:15 Calm 16.09 Fair CLR 14.5 9 70% 75.72 0.0
05 03:55 Calm 16.09 Fair CLR 14.8 8.8 68% 75.69 0.0
05 03:35 Calm 16.09 Fair CLR 15 8.9 67% 75.69 0.0
05 03:15 Calm 16.09 Fair CLR 15.1 8.8 66% 75.69 0.0
05 02:55 Calm 16.09 Fair CLR 15.8 8.8 63% 75.67 0.0
05 02:35 SW 7 16.09 Thunderstorm in Vicinity CLR 16.2 8.8 62% 75.67 0.0
05 02:15 SW 15 16.09 Fair CLR 16.3 8.7 61% 75.67 0.0
05 01:55 Calm 16.09 Fair CLR 16.7 8.8 22.7 16.2 60% 75.69 0.0
05 01:35 Calm 16.09 Fair CLR 16.5 9 61% 75.69 0.0
05 01:15 Calm 16.09 Fair CLR 17.5 8.8 57% 75.69 0.0
Date Time (edt) Wind (kph) Vis. (km) Weather Sky Cond. Air Dwpt Max. Min. Relative Humidity Wind Chill (°C) Heat Index (°C) altimeter (cm) sea level (mb) 1 hr 3 hr 6 hr
6 hour
Temperature (ºC) Pressure Precipitation (cm)